Nova Cantu, Brazil
Current Conditions -  °F | °C
As of 6:00 AM on Thursday 29 Jan 2015 (Local Time) from SBCA Reporting Station
Light Fog Light Fog  
Wind Chill: 68°   Ceiling: 200
Heat Index: 68°   Visibility: 1.8mi
Dew Point: 66°   Wind: 20mph
Humidity: 94%   Direction: 20°NNE
Pressure: 29.91"   Gusts: NA
Location:  24.67°S, 52.57°W
Report Text: SBCA 290800Z 02017KT 3000 1000NW BCFG FEW001 BKN002 20/19 Q1013
Loading
Personal Weather Stations






























Interactive Weather Map New forecast layout! Learn more

10-Day Weather Forecast

Advertisements
Track Severe Weather on mobile